createdAt,value
2022-10-06T00:01:19.868Z,101296.25
2022-10-06T00:03:47.120Z,101283.06
2022-10-06T00:06:17.036Z,101296.19
2022-10-06T00:08:45.328Z,101294.38
2022-10-06T00:11:14.240Z,101298.75
2022-10-06T00:13:42.175Z,101297.84
2022-10-06T00:16:17.570Z,101287.31
2022-10-06T00:18:45.368Z,101298.66
2022-10-06T00:21:12.291Z,101304.78
2022-10-06T00:23:39.155Z,101311.78
2022-10-06T00:26:06.301Z,101311.75
2022-10-06T00:28:33.740Z,101319.59
2022-10-06T00:31:03.663Z,101316.09
2022-10-06T00:33:30.599Z,101318.69
2022-10-06T00:35:58.797Z,101322.19
2022-10-06T00:38:27.357Z,101320.38
2022-10-06T00:40:55.737Z,101321.25
2022-10-06T00:43:57.014Z,101329.97
2022-10-06T00:46:47.317Z,101331.75
2022-10-06T00:49:28.052Z,101336.06
2022-10-06T00:52:00.580Z,101339.53
2022-10-06T00:54:28.561Z,101339.47
2022-10-06T00:56:55.765Z,101341.16
2022-10-06T00:59:22.641Z,101335.91
2022-10-06T01:02:15.665Z,101341.97
2022-10-06T01:04:55.823Z,101334.91
2022-10-06T01:07:26.881Z,101333.97
2022-10-06T01:09:55.211Z,101340.03
2022-10-06T01:15:04.971Z,101337.38
2022-10-06T01:17:52.372Z,101346.94
2022-10-06T01:20:20.658Z,101345.13
2022-10-06T01:23:02.675Z,101344.22
2022-10-06T01:25:29.760Z,101345.91
2022-10-06T01:27:58.626Z,101342.34
2022-10-06T01:30:36.498Z,101340.56
2022-10-06T01:33:04.037Z,101354.56
2022-10-06T01:35:32.782Z,101353.63
2022-10-06T01:38:00.602Z,101359.75
2022-10-06T01:40:30.212Z,101355.31
2022-10-06T01:43:00.199Z,101354.41
2022-10-06T01:45:28.077Z,101344.72
2022-10-06T01:47:54.968Z,101357.03
2022-10-06T01:50:22.693Z,101353.53
2022-10-06T01:52:49.773Z,101364.91
2022-10-06T01:55:17.285Z,101357.00
2022-10-06T01:57:44.427Z,101358.72
2022-10-06T02:00:12.908Z,101363.09
2022-10-06T02:02:40.753Z,101361.31
2022-10-06T02:05:08.023Z,101369.16
2022-10-06T02:07:38.279Z,101374.44
2022-10-06T02:10:06.776Z,101363.03
2022-10-06T02:12:35.165Z,101361.25
2022-10-06T02:15:02.446Z,101371.69
2022-10-06T02:17:29.605Z,101376.94
2022-10-06T02:19:56.576Z,101383.94
2022-10-06T02:22:23.496Z,101390.91
2022-10-06T02:24:51.020Z,101391.78
2022-10-06T02:27:18.331Z,101410.16
2022-10-06T02:29:45.308Z,101422.47
2022-10-06T02:32:13.925Z,101435.63
2022-10-06T02:34:41.052Z,101438.25
2022-10-06T02:37:08.670Z,101458.44
2022-10-06T02:39:35.714Z,101470.75
2022-10-06T02:42:05.229Z,101461.22
2022-10-06T02:44:32.117Z,101455.03
2022-10-06T02:46:59.481Z,101446.34
2022-10-06T02:49:26.575Z,101441.97
2022-10-06T02:51:53.492Z,101423.59
2022-10-06T02:54:20.351Z,101432.38
2022-10-06T02:56:50.150Z,101422.72
2022-10-06T02:59:17.075Z,101439.44
2022-10-06T03:01:44.993Z,101458.72
2022-10-06T03:04:16.188Z,101457.81
2022-10-06T03:06:43.568Z,101471.03
2022-10-06T03:09:19.163Z,101477.16
2022-10-06T03:11:46.390Z,101478.03
2022-10-06T03:14:21.915Z,101488.59
2022-10-06T03:16:51.819Z,101500.00
2022-10-06T03:19:25.719Z,101501.75
2022-10-06T03:21:53.468Z,101499.16
2022-10-06T03:24:22.869Z,101512.34
2022-10-06T03:26:54.417Z,101514.09
2022-10-06T03:29:21.362Z,101513.28
2022-10-06T03:31:54.627Z,101515.88
2022-10-06T03:34:21.563Z,101529.94
2022-10-06T03:36:48.533Z,101530.84
2022-10-06T03:39:18.867Z,101541.38
2022-10-06T03:41:46.175Z,101544.00
2022-10-06T03:44:14.425Z,101544.88
2022-10-06T03:46:43.179Z,101556.28
2022-10-06T03:49:10.815Z,101562.44
2022-10-06T03:51:40.442Z,101569.47
2022-10-06T03:54:12.529Z,101573.84
2022-10-06T03:56:42.947Z,101587.88
2022-10-06T03:59:16.413Z,101602.81
2022-10-06T04:01:47.510Z,101598.41
2022-10-06T04:04:22.732Z,101606.34
2022-10-06T04:06:53.856Z,101624.75
2022-10-06T04:09:21.695Z,101626.53
2022-10-06T04:11:48.755Z,101637.94
2022-10-06T04:14:16.833Z,101641.44
2022-10-06T04:16:48.623Z,101657.25
2022-10-06T04:19:20.322Z,101655.50
2022-10-06T04:21:50.332Z,101663.41
2022-10-06T04:24:21.128Z,101661.66
2022-10-06T04:26:50.043Z,101675.69
2022-10-06T04:29:18.353Z,101668.69
2022-10-06T04:31:49.219Z,101676.59
2022-10-06T04:34:34.679Z,101669.66
2022-10-06T04:37:01.600Z,101680.16
2022-10-06T04:39:28.520Z,101691.59
2022-10-06T04:41:55.629Z,101696.00
2022-10-06T04:44:26.705Z,101702.19
2022-10-06T04:46:55.812Z,101700.44
2022-10-06T04:49:22.711Z,101703.13
2022-10-06T04:51:52.435Z,101707.50
2022-10-06T04:54:19.716Z,101710.16
2022-10-06T04:56:49.915Z,101722.44
2022-10-06T04:59:18.849Z,101732.09
2022-10-06T05:01:46.988Z,101740.91
2022-10-06T05:04:14.810Z,101736.50
2022-10-06T05:06:42.911Z,101751.44
2022-10-06T05:09:14.811Z,101755.78
2022-10-06T05:11:48.735Z,101759.31
2022-10-06T05:14:18.928Z,101754.94
2022-10-06T05:16:48.570Z,101764.59
2022-10-06T05:19:16.609Z,101770.75
2022-10-06T05:21:43.541Z,101763.75
2022-10-06T05:24:14.256Z,101775.09
2022-10-06T05:26:41.569Z,101783.88
2022-10-06T05:29:11.615Z,101784.75
2022-10-06T05:31:41.170Z,101784.75
2022-10-06T05:34:08.424Z,101794.41
2022-10-06T05:36:36.195Z,101793.53
2022-10-06T05:39:05.023Z,101793.50
2022-10-06T05:41:38.169Z,101811.91
2022-10-06T05:44:08.675Z,101804.91
2022-10-06T05:46:37.948Z,101803.16
2022-10-06T05:49:09.093Z,101825.94
2022-10-06T05:51:38.835Z,101825.94
2022-10-06T05:54:09.739Z,101832.94
2022-10-06T05:56:38.228Z,101831.16
2022-10-06T05:59:05.960Z,101830.31
2022-10-06T06:01:42.370Z,101846.94
2022-10-06T06:04:26.545Z,101855.69
2022-10-06T06:06:56.283Z,101862.69
2022-10-06T06:09:26.254Z,101863.56
2022-10-06T06:11:55.016Z,101870.56
2022-10-06T06:15:00.080Z,101885.47
2022-10-06T06:17:33.305Z,101888.09
2022-10-06T06:20:02.160Z,101896.84
2022-10-06T06:22:29.099Z,101898.59
2022-10-06T06:24:55.964Z,101907.38
2022-10-06T06:27:23.346Z,101914.38
2022-10-06T06:29:50.399Z,101916.09
2022-10-06T06:32:17.430Z,101917.00
2022-10-06T06:34:45.093Z,101911.72
2022-10-06T06:37:15.216Z,101916.97
2022-10-06T06:39:44.956Z,101937.13
2022-10-06T06:42:12.082Z,101939.78
2022-10-06T06:44:39.518Z,101943.25
2022-10-06T06:47:13.900Z,101954.66
2022-10-06T06:49:42.955Z,101973.06
2022-10-06T06:52:09.975Z,101970.41
2022-10-06T06:54:40.508Z,101980.97
2022-10-06T06:57:11.901Z,101987.06
2022-10-06T06:59:38.939Z,101986.22
2022-10-06T07:02:09.855Z,101995.84
2022-10-06T07:04:38.856Z,101997.59
2022-10-06T07:07:09.733Z,102006.38
2022-10-06T07:09:37.529Z,102012.50
2022-10-06T07:12:11.369Z,102014.28
2022-10-06T07:15:00.569Z,102009.06
2022-10-06T07:17:47.924Z,102028.34
2022-10-06T07:20:34.193Z,102026.59
2022-10-06T07:23:19.296Z,102035.34
2022-10-06T07:25:46.418Z,102039.72
2022-10-06T07:28:16.875Z,102042.38
2022-10-06T07:30:44.862Z,102043.25
2022-10-06T07:33:18.761Z,102046.75
2022-10-06T07:35:46.795Z,102045.00
2022-10-06T07:38:16.139Z,102060.81
2022-10-06T07:41:14.602Z,102064.31
2022-10-06T07:43:33.718Z,102064.31
2022-10-06T07:46:01.171Z,102067.81
2022-10-06T07:48:32.551Z,102066.94
2022-10-06T07:51:02.169Z,102084.50
2022-10-06T07:53:36.020Z,102080.09
2022-10-06T07:56:09.122Z,102078.34
2022-10-06T07:58:40.908Z,102103.75
2022-10-06T08:01:11.115Z,102096.78
2022-10-06T08:03:38.478Z,102089.75
2022-10-06T08:06:05.477Z,102102.03
2022-10-06T08:08:37.881Z,102102.91
2022-10-06T08:11:08.158Z,102114.31
2022-10-06T08:13:42.142Z,102130.09
2022-10-06T08:16:11.507Z,102106.44
2022-10-06T08:18:46.571Z,102116.97
2022-10-06T08:21:17.803Z,102120.44
2022-10-06T08:23:46.802Z,102137.13
2022-10-06T08:26:15.728Z,102139.78
2022-10-06T08:28:52.683Z,102145.88
2022-10-06T08:31:22.745Z,102157.31
2022-10-06T08:33:56.051Z,102148.53
2022-10-06T08:36:31.063Z,102166.97
2022-10-06T08:38:59.547Z,102170.50
2022-10-06T08:41:48.638Z,102169.63
2022-10-06T08:44:19.469Z,102175.78
2022-10-06T08:47:04.243Z,102175.78
2022-10-06T08:49:47.093Z,102180.16
2022-10-06T08:52:36.570Z,102182.78
2022-10-06T08:55:30.612Z,102190.69
2022-10-06T08:58:23.279Z,102192.44
2022-10-06T09:00:50.741Z,102188.06
2022-10-06T09:03:28.590Z,102200.34
2022-10-06T09:06:12.552Z,102205.59
2022-10-06T09:08:51.258Z,102202.97
2022-10-06T09:11:37.440Z,102204.69
2022-10-06T09:14:24.448Z,102217.88
2022-10-06T09:17:00.669Z,102216.13
2022-10-06T09:19:58.652Z,102231.06
2022-10-06T09:22:31.628Z,102241.59
2022-10-06T09:25:28.066Z,102235.44
2022-10-06T09:28:00.815Z,102252.13
2022-10-06T09:30:27.785Z,102240.69
2022-10-06T09:33:03.782Z,102244.22
2022-10-06T09:35:32.665Z,102245.09
2022-10-06T09:38:08.801Z,102251.25
2022-10-06T09:40:51.212Z,102254.72
2022-10-06T09:43:29.065Z,102260.88
2022-10-06T09:46:21.172Z,102252.09
2022-10-06T09:48:48.043Z,102253.84
2022-10-06T09:51:17.843Z,102270.56
2022-10-06T09:54:10.474Z,102269.66
2022-10-06T09:56:42.334Z,102271.38
2022-10-06T09:59:21.741Z,102282.84
2022-10-06T10:01:55.329Z,102277.50
2022-10-06T10:04:37.528Z,102273.13
2022-10-06T10:07:25.565Z,102286.25
2022-10-06T10:09:54.458Z,102288.88
2022-10-06T10:12:28.630Z,102291.50
2022-10-06T10:15:19.650Z,102297.63
2022-10-06T10:17:53.060Z,102292.34
2022-10-06T10:20:29.864Z,102297.56
2022-10-06T10:23:00.693Z,102312.50
2022-10-06T10:25:44.700Z,102319.56
2022-10-06T10:28:14.119Z,102317.75
2022-10-06T10:31:05.231Z,102329.16
2022-10-06T10:34:12.654Z,102326.50
2022-10-06T10:37:04.850Z,102318.56
2022-10-06T10:39:46.094Z,102332.63
2022-10-06T10:42:56.197Z,102325.53
2022-10-06T10:45:35.368Z,102334.25
2022-10-06T10:48:23.170Z,102328.91
2022-10-06T10:51:13.108Z,102333.31
2022-10-06T10:53:55.781Z,102336.78
2022-10-06T10:56:26.331Z,102338.50
2022-10-06T10:59:04.162Z,102342.88
2022-10-06T11:01:38.970Z,102338.50
2022-10-06T11:04:11.899Z,102357.78
2022-10-06T11:06:55.859Z,102362.19
2022-10-06T11:09:58.530Z,102362.16
2022-10-06T11:13:00.333Z,102363.91
2022-10-06T11:16:00.364Z,102363.00
2022-10-06T11:19:02.580Z,102371.81
2022-10-06T11:22:10.940Z,102363.81
2022-10-06T11:24:47.536Z,102378.78
2022-10-06T11:27:31.519Z,102368.19
2022-10-06T11:30:07.261Z,102377.00
2022-10-06T11:33:01.518Z,102375.22
2022-10-06T11:35:35.317Z,102385.78
2022-10-06T11:38:30.088Z,102384.00
2022-10-06T11:41:15.914Z,102386.59
2022-10-06T11:44:00.777Z,102388.38
2022-10-06T11:47:11.215Z,102391.00
2022-10-06T11:49:56.016Z,102399.81
2022-10-06T11:52:23.828Z,102384.78
2022-10-06T11:55:07.759Z,102387.44
2022-10-06T11:58:08.710Z,102400.63
2022-10-06T12:00:46.704Z,102393.56
2022-10-06T12:03:28.973Z,102395.31
2022-10-06T12:05:57.053Z,102404.06
2022-10-06T12:08:40.788Z,102404.06
2022-10-06T12:11:42.951Z,102404.97
2022-10-06T12:16:55.342Z,102405.88
2022-10-06T12:17:58.418Z,102410.28
2022-10-06T12:21:06.435Z,102409.38
2022-10-06T12:23:52.777Z,102403.22
2022-10-06T12:26:54.186Z,102414.69
2022-10-06T12:29:29.670Z,102404.19
2022-10-06T12:32:24.228Z,102413.06
2022-10-06T12:35:08.607Z,102405.16
2022-10-06T12:37:56.166Z,102414.00
2022-10-06T12:40:49.973Z,102418.34
2022-10-06T12:43:20.872Z,102413.00
2022-10-06T12:46:32.693Z,102415.63
2022-10-06T12:49:36.837Z,102413.81
2022-10-06T12:52:47.306Z,102416.47
2022-10-06T12:55:35.370Z,102421.75
2022-10-06T12:58:02.321Z,102420.03
2022-10-06T13:00:40.386Z,102412.16
2022-10-06T13:03:16.395Z,102422.75
2022-10-06T13:05:51.237Z,102425.44
2022-10-06T13:08:30.821Z,102427.25
2022-10-06T13:11:27.038Z,102433.47
2022-10-06T13:14:07.153Z,102429.16
2022-10-06T13:16:40.956Z,102434.47
2022-10-06T13:19:25.478Z,102442.38
2022-10-06T13:21:53.598Z,102441.53
2022-10-06T13:24:26.700Z,102438.00
2022-10-06T13:26:54.215Z,102432.72
2022-10-06T13:29:25.319Z,102450.28
2022-10-06T13:31:55.593Z,102445.84
2022-10-06T13:34:43.016Z,102453.72
2022-10-06T13:37:15.027Z,102456.38
2022-10-06T13:39:41.971Z,102457.22
2022-10-06T13:42:14.232Z,102457.22
2022-10-06T13:44:57.435Z,102463.44
2022-10-06T13:47:27.044Z,102461.69
2022-10-06T13:50:06.146Z,102469.69
2022-10-06T13:52:46.507Z,102469.72
2022-10-06T13:55:25.848Z,102467.97
2022-10-06T13:58:04.847Z,102475.03
2022-10-06T14:00:51.152Z,102479.47
2022-10-06T14:06:17.480Z,102475.97
2022-10-06T14:08:54.138Z,102476.84
2022-10-06T14:11:28.067Z,102481.25
2022-10-06T14:14:04.669Z,102485.69
2022-10-06T14:16:31.928Z,102476.88
2022-10-06T14:19:05.117Z,102479.50
2022-10-06T14:21:35.506Z,102478.63
2022-10-06T14:24:19.330Z,102480.44
2022-10-06T14:26:50.766Z,102479.56
2022-10-06T14:29:19.275Z,102478.69
2022-10-06T14:31:47.036Z,102479.59
2022-10-06T14:34:17.069Z,102481.34
2022-10-06T14:36:47.543Z,102487.50
2022-10-06T14:39:15.652Z,102487.53
2022-10-06T14:41:42.612Z,102487.56
2022-10-06T14:44:12.160Z,102489.31
2022-10-06T14:46:47.664Z,102488.44
2022-10-06T14:49:14.900Z,102488.41
2022-10-06T14:51:43.685Z,102491.06
2022-10-06T14:54:11.359Z,102492.84
2022-10-06T14:56:40.017Z,102489.31
2022-10-06T14:59:10.412Z,102479.59
2022-10-06T15:01:39.886Z,102484.88
2022-10-06T15:04:14.404Z,102488.41
2022-10-06T15:07:00.829Z,102479.59
2022-10-06T15:09:30.818Z,102487.53
2022-10-06T15:11:59.419Z,102495.44
2022-10-06T15:14:28.318Z,102488.44
2022-10-06T15:16:55.947Z,102489.28
2022-10-06T15:19:22.816Z,102493.69
2022-10-06T15:21:49.791Z,102494.56
2022-10-06T15:24:19.043Z,102500.75
2022-10-06T15:27:05.482Z,102504.28
2022-10-06T15:29:34.744Z,102513.94
2022-10-06T15:32:03.555Z,102513.94
2022-10-06T15:34:33.449Z,102514.84
2022-10-06T15:37:01.594Z,102515.72
2022-10-06T15:39:31.440Z,102511.34
2022-10-06T15:41:58.990Z,102528.06
2022-10-06T15:44:26.202Z,102518.38
2022-10-06T15:46:56.589Z,102513.13
2022-10-06T15:49:32.811Z,102520.19
2022-10-06T15:52:03.681Z,102512.28
2022-10-06T15:54:45.846Z,102511.41
2022-10-06T15:57:19.486Z,102516.66
2022-10-06T15:59:47.702Z,102525.47
2022-10-06T16:02:16.748Z,102522.84
2022-10-06T16:05:08.877Z,102529.88
2022-10-06T16:07:35.763Z,102531.63
2022-10-06T16:10:02.723Z,102529.88
2022-10-06T16:12:29.603Z,102534.28
2022-10-06T16:14:56.477Z,102533.41
2022-10-06T16:17:23.353Z,102532.50
2022-10-06T16:19:50.213Z,102542.19
2022-10-06T16:22:19.330Z,102547.47
2022-10-06T16:24:46.371Z,102549.22
2022-10-06T16:27:15.783Z,102550.97
2022-10-06T16:29:42.725Z,102558.88
2022-10-06T16:32:09.746Z,102546.56
2022-10-06T16:34:36.651Z,102549.19
2022-10-06T16:37:03.724Z,102554.41
2022-10-06T16:39:30.673Z,102564.94
2022-10-06T16:41:57.762Z,102562.28
2022-10-06T16:44:24.682Z,102555.25
2022-10-06T16:46:51.620Z,102571.03
2022-10-06T16:49:18.643Z,102571.03
2022-10-06T16:51:46.128Z,102565.72
2022-10-06T16:54:16.981Z,102570.09
2022-10-06T16:56:51.705Z,102562.13
2022-10-06T16:59:25.794Z,102581.44
2022-10-06T17:01:52.815Z,102577.91
2022-10-06T17:04:24.792Z,102586.66
2022-10-06T17:06:53.467Z,102577.84
2022-10-06T17:09:23.899Z,102585.72
2022-10-06T17:11:57.369Z,102583.06
2022-10-06T17:14:25.045Z,102580.41
2022-10-06T17:16:54.263Z,102587.38
2022-10-06T17:19:24.353Z,102583.81
2022-10-06T17:21:58.225Z,102587.28
2022-10-06T17:24:27.913Z,102589.88
2022-10-06T17:26:56.418Z,102584.56
2022-10-06T17:29:24.115Z,102587.19
2022-10-06T17:31:58.786Z,102584.53
2022-10-06T17:34:31.751Z,102593.28
2022-10-06T17:37:01.132Z,102587.97
2022-10-06T17:39:28.033Z,102596.72
2022-10-06T17:41:54.910Z,102587.06
2022-10-06T17:44:26.109Z,102591.41
2022-10-06T17:46:56.468Z,102593.13
2022-10-06T17:49:24.495Z,102585.16
2022-10-06T17:51:53.521Z,102596.53
2022-10-06T17:54:23.576Z,102594.69
2022-10-06T17:56:54.133Z,102602.59
2022-10-06T17:59:24.502Z,102607.78
2022-10-06T18:01:52.134Z,102606.91
2022-10-06T18:04:19.829Z,102598.09
2022-10-06T18:06:47.691Z,102599.81
2022-10-06T18:09:15.880Z,102596.28
2022-10-06T18:11:45.868Z,102584.75
2022-10-06T18:14:18.609Z,102588.22
2022-10-06T18:16:56.632Z,102591.69
2022-10-06T18:19:30.809Z,102596.03
2022-10-06T18:22:11.600Z,102603.00
2022-10-06T18:24:39.919Z,102603.78
2022-10-06T18:27:08.177Z,102593.22
2022-10-06T18:29:38.073Z,102600.22
2022-10-06T18:36:12.146Z,102600.09
2022-10-06T18:37:41.247Z,102601.78
2022-10-06T18:40:09.870Z,102600.00
2022-10-06T18:42:37.864Z,102604.34
2022-10-06T18:45:24.629Z,102607.75
2022-10-06T18:48:10.290Z,102618.22
2022-10-06T18:50:37.156Z,102619.88
2022-10-06T18:53:04.304Z,102616.31
2022-10-06T18:55:31.837Z,102625.91
2022-10-06T18:57:58.776Z,102628.50
2022-10-06T19:00:26.305Z,102620.56
2022-10-06T19:02:55.471Z,102627.50
2022-10-06T19:05:23.138Z,102635.34
2022-10-06T19:07:53.523Z,102617.66
2022-10-06T19:10:20.398Z,102628.16
2022-10-06T19:12:48.316Z,102627.22
2022-10-06T19:15:20.396Z,102625.34
2022-10-06T19:17:48.150Z,102633.22
2022-10-06T19:20:15.035Z,102641.09
2022-10-06T19:22:43.363Z,102641.03
2022-10-06T19:25:10.297Z,102646.22
2022-10-06T19:27:37.223Z,102641.81
2022-10-06T19:30:05.133Z,102638.22
2022-10-06T19:32:32.637Z,102639.09
2022-10-06T19:35:00.101Z,102645.16
2022-10-06T19:37:29.417Z,102645.06
2022-10-06T19:39:56.410Z,102635.41
2022-10-06T19:42:42.072Z,102646.69
2022-10-06T19:45:11.590Z,102644.84
2022-10-06T19:47:38.542Z,102654.41
2022-10-06T19:50:11.672Z,102647.38
2022-10-06T19:52:40.625Z,102649.09
2022-10-06T19:55:07.586Z,102644.66
2022-10-06T19:57:34.808Z,102651.63
2022-10-06T20:00:01.699Z,102648.94
2022-10-06T20:02:28.898Z,102640.06
2022-10-06T20:04:56.517Z,102638.34
2022-10-06T20:07:27.435Z,102647.88
2022-10-06T20:09:54.799Z,102656.56
2022-10-06T20:12:24.882Z,102655.66
2022-10-06T20:14:53.584Z,102650.31
2022-10-06T20:17:21.035Z,102653.84
2022-10-06T20:19:48.062Z,102657.31
2022-10-06T20:22:14.961Z,102659.88
2022-10-06T20:24:41.884Z,102665.09
2022-10-06T20:27:09.042Z,102672.06
2022-10-06T20:29:36.019Z,102662.41
2022-10-06T20:32:05.012Z,102659.69
2022-10-06T20:34:32.261Z,102664.91
2022-10-06T20:37:02.220Z,102666.59
2022-10-06T20:39:50.313Z,102679.59
2022-10-06T20:42:18.560Z,102673.38
2022-10-06T20:44:45.975Z,102668.09
2022-10-06T20:47:13.858Z,102669.72
2022-10-06T20:49:42.445Z,102669.72
2022-10-06T20:52:09.971Z,102668.81
2022-10-06T20:54:37.304Z,102663.50
2022-10-06T20:57:06.353Z,102669.56
2022-10-06T20:59:36.587Z,102666.91
2022-10-06T21:02:05.543Z,102665.97
2022-10-06T21:04:34.618Z,102671.19
2022-10-06T21:07:04.023Z,102665.88
2022-10-06T21:09:31.048Z,102675.47
2022-10-06T21:11:58.087Z,102663.19
2022-10-06T21:14:25.151Z,102671.03
2022-10-06T21:16:52.580Z,102664.00
2022-10-06T21:19:20.074Z,102670.06
2022-10-06T21:21:50.748Z,102658.59
2022-10-06T21:24:18.095Z,102663.00
2022-10-06T21:26:45.163Z,102668.16
2022-10-06T21:29:16.197Z,102668.97
2022-10-06T21:31:45.186Z,102661.94
2022-10-06T21:34:14.497Z,102671.53
2022-10-06T21:36:42.375Z,102663.63
2022-10-06T21:39:09.579Z,102662.66
2022-10-06T21:41:39.645Z,102660.00
2022-10-06T21:44:11.758Z,102660.84
2022-10-06T21:46:47.742Z,102657.28
2022-10-06T21:49:24.474Z,102661.59
2022-10-06T21:51:54.959Z,102650.13
2022-10-06T21:54:23.287Z,102660.59
2022-10-06T21:56:50.403Z,102657.06
2022-10-06T21:59:17.589Z,102666.59
2022-10-06T22:01:46.516Z,102655.25
2022-10-06T22:04:15.228Z,102659.56
2022-10-06T22:06:44.021Z,102651.66
2022-10-06T22:09:16.143Z,102651.63
2022-10-06T22:11:43.506Z,102660.31
2022-10-06T22:14:17.272Z,102656.78
2022-10-06T22:16:44.895Z,102650.66
2022-10-06T22:19:14.231Z,102656.69
2022-10-06T22:21:44.615Z,102647.03
2022-10-06T22:24:15.407Z,102653.03
2022-10-06T22:26:43.412Z,102639.06
2022-10-06T22:29:13.768Z,102634.66
2022-10-06T22:31:43.164Z,102641.56
2022-10-06T22:34:13.198Z,102642.34
2022-10-06T22:36:40.266Z,102639.66
2022-10-06T22:39:07.723Z,102644.91
2022-10-06T22:41:34.796Z,102637.84
2022-10-06T22:44:01.802Z,102636.94
2022-10-06T22:46:32.453Z,102642.13
2022-10-06T22:48:59.812Z,102630.72
2022-10-06T22:51:27.154Z,102627.22
2022-10-06T22:53:58.295Z,102631.41
2022-10-06T22:56:27.476Z,102635.88
2022-10-06T22:58:54.958Z,102640.16
2022-10-06T23:01:22.161Z,102631.41
2022-10-06T23:03:49.161Z,102634.84
2022-10-06T23:06:17.930Z,102633.94
2022-10-06T23:08:45.219Z,102636.50
2022-10-06T23:11:15.507Z,102626.00
2022-10-06T23:13:43.391Z,102623.34
2022-10-06T23:16:13.712Z,102623.28
2022-10-06T23:18:41.814Z,102622.38
2022-10-06T23:21:19.250Z,102622.31
2022-10-06T23:23:46.974Z,102617.00
2022-10-06T23:26:16.087Z,102622.19
2022-10-06T23:28:43.296Z,102615.19
2022-10-06T23:31:11.498Z,102623.00
2022-10-06T23:33:39.035Z,102612.47
2022-10-06T23:36:09.995Z,102606.31
2022-10-06T23:38:38.187Z,102610.59
2022-10-06T23:41:06.786Z,102608.78
2022-10-06T23:43:34.260Z,102613.16
2022-10-06T23:46:02.607Z,102610.41
2022-10-06T23:48:30.235Z,102610.47
2022-10-06T23:51:04.739Z,102609.50
2022-10-06T23:53:34.131Z,102611.19
2022-10-06T23:56:01.591Z,102612.94
2022-10-06T23:58:29.035Z,102614.63
